createdAt,value
2023-02-24T00:00:32.032Z,11.58
2023-02-24T00:03:05.825Z,12.02
2023-02-24T00:05:39.251Z,12.05
2023-02-24T00:08:07.274Z,11.69
2023-02-24T00:10:37.465Z,11.93
2023-02-24T00:13:06.345Z,11.86
2023-02-24T00:15:34.097Z,11.92
2023-02-24T00:18:06.992Z,11.85
2023-02-24T00:20:34.864Z,11.84
2023-02-24T00:23:03.998Z,11.80
2023-02-24T00:25:31.691Z,11.79
2023-02-24T00:28:03.541Z,11.67
2023-02-24T00:30:32.863Z,11.75
2023-02-24T00:33:02.435Z,11.60
2023-02-24T00:35:30.355Z,11.57
2023-02-24T00:37:58.128Z,11.65
2023-02-24T00:40:30.204Z,11.64
2023-02-24T00:42:58.124Z,11.42
2023-02-24T00:45:25.804Z,11.65
2023-02-24T00:47:57.581Z,11.65
2023-02-24T00:50:25.461Z,11.55
2023-02-24T00:52:53.200Z,11.67
2023-02-24T00:55:23.369Z,11.66
2023-02-24T00:57:52.582Z,11.64
2023-02-24T01:00:23.334Z,11.39
2023-02-24T01:02:51.242Z,11.64
2023-02-24T01:05:19.857Z,11.65
2023-02-24T01:07:47.675Z,11.52
2023-02-24T01:10:18.223Z,11.43
2023-02-24T01:12:50.909Z,11.62
2023-02-24T01:15:20.784Z,11.57
2023-02-24T01:17:49.784Z,11.54
2023-02-24T01:20:18.418Z,11.52
2023-02-24T01:22:51.172Z,11.39
2023-02-24T01:25:20.305Z,11.50
2023-02-24T01:27:48.556Z,11.52
2023-02-24T01:30:16.766Z,11.49
2023-02-24T01:32:47.234Z,11.31
2023-02-24T01:35:15.692Z,11.51
2023-02-24T01:37:45.185Z,11.48
2023-02-24T01:40:18.595Z,11.46
2023-02-24T01:42:49.336Z,11.46
2023-02-24T01:45:21.269Z,11.03
2023-02-24T01:47:50.449Z,11.28
2023-02-24T01:50:21.575Z,11.29
2023-02-24T01:52:49.544Z,11.25
2023-02-24T01:55:20.898Z,11.09
2023-02-24T01:57:48.774Z,11.22
2023-02-24T02:00:33.076Z,11.21
2023-02-24T02:03:05.093Z,11.19
2023-02-24T02:05:32.990Z,11.20
2023-02-24T02:08:00.812Z,10.88
2023-02-24T02:10:29.643Z,11.11
2023-02-24T02:12:57.386Z,11.09
2023-02-24T02:15:25.300Z,11.06
2023-02-24T02:17:58.439Z,10.62
2023-02-24T02:21:01.715Z,11.10
2023-02-24T02:24:04.363Z,11.13
2023-02-24T02:27:02.627Z,11.12
2023-02-24T02:29:56.318Z,11.06
2023-02-24T02:32:52.578Z,11.07
2023-02-24T02:35:22.636Z,11.04
2023-02-24T02:37:53.474Z,11.00
2023-02-24T02:40:24.576Z,11.00
2023-02-24T02:42:55.382Z,10.79
2023-02-24T02:45:25.191Z,10.98
2023-02-24T02:47:54.893Z,10.64
2023-02-24T02:50:26.997Z,10.94
2023-02-24T02:52:57.018Z,10.08
2023-02-24T02:55:27.729Z,10.52
2023-02-24T02:57:56.097Z,10.73
2023-02-24T03:00:24.904Z,10.84
2023-02-24T03:02:55.211Z,10.80
2023-02-24T03:05:29.761Z,10.75
2023-02-24T03:07:58.602Z,10.74
2023-02-24T03:10:28.596Z,10.41
2023-02-24T03:12:58.193Z,10.61
2023-02-24T03:15:27.511Z,10.54
2023-02-24T03:17:56.882Z,10.50
2023-02-24T03:20:29.357Z,10.24
2023-02-24T03:23:00.306Z,10.40
2023-02-24T03:25:33.905Z,9.86
2023-02-24T03:28:03.880Z,10.34
2023-02-24T03:30:35.590Z,10.30
2023-02-24T03:33:06.487Z,9.73
2023-02-24T03:35:38.823Z,9.82
2023-02-24T03:38:06.625Z,9.79
2023-02-24T03:40:36.053Z,10.22
2023-02-24T03:43:07.608Z,10.00
2023-02-24T03:45:39.055Z,9.86
2023-02-24T03:48:07.256Z,9.99
2023-02-24T03:50:38.031Z,9.88
2023-02-24T03:53:13.914Z,10.09
2023-02-24T03:55:47.085Z,10.04
2023-02-24T03:58:18.270Z,10.02
2023-02-24T04:00:49.676Z,9.99
2023-02-24T04:03:26.576Z,9.96
2023-02-24T04:06:01.762Z,9.92
2023-02-24T04:08:31.192Z,9.94
2023-02-24T04:11:00.300Z,9.55
2023-02-24T04:13:35.326Z,9.89
2023-02-24T04:16:05.213Z,9.55
2023-02-24T04:18:33.100Z,9.89
2023-02-24T04:21:03.582Z,9.88
2023-02-24T04:23:32.995Z,9.85
2023-02-24T04:26:00.876Z,9.56
2023-02-24T04:28:28.711Z,9.64
2023-02-24T04:30:57.801Z,9.99
2023-02-24T04:33:27.706Z,10.01
2023-02-24T04:35:55.390Z,10.02
2023-02-24T04:38:24.981Z,10.00
2023-02-24T04:40:52.904Z,9.94
2023-02-24T04:43:20.834Z,10.00
2023-02-24T04:45:48.540Z,9.83
2023-02-24T04:48:16.209Z,10.06
2023-02-24T04:50:44.623Z,10.07
2023-02-24T04:53:13.425Z,10.02
2023-02-24T04:55:48.633Z,10.12
2023-02-24T04:58:19.169Z,10.12
2023-02-24T05:00:48.840Z,10.03
2023-02-24T05:03:16.978Z,9.55
2023-02-24T05:05:51.979Z,10.12
2023-02-24T05:08:19.960Z,10.15
2023-02-24T05:10:49.187Z,10.17
2023-02-24T05:13:17.828Z,10.16
2023-02-24T05:15:46.189Z,9.80
2023-02-24T05:18:17.068Z,9.59
2023-02-24T05:21:03.662Z,10.13
2023-02-24T05:23:33.848Z,10.08
2023-02-24T05:26:08.534Z,10.04
2023-02-24T05:28:37.845Z,10.03
2023-02-24T05:31:15.045Z,9.72
2023-02-24T05:33:43.527Z,9.02
2023-02-24T05:36:18.005Z,9.93
2023-02-24T05:38:46.301Z,9.93
2023-02-24T05:41:17.602Z,9.53
2023-02-24T05:43:48.144Z,9.57
2023-02-24T05:46:20.442Z,9.88
2023-02-24T05:48:51.715Z,9.85
2023-02-24T05:51:19.894Z,9.87
2023-02-24T05:56:39.439Z,9.89
2023-02-24T05:59:10.699Z,9.88
2023-02-24T06:01:41.318Z,9.53
2023-02-24T06:04:20.706Z,9.85
2023-02-24T06:06:52.396Z,9.76
2023-02-24T06:09:23.106Z,9.94
2023-02-24T06:11:52.209Z,9.95
2023-02-24T06:14:21.407Z,9.94
2023-02-24T06:16:49.426Z,9.97
2023-02-24T06:19:17.690Z,9.94
2023-02-24T06:21:45.888Z,10.01
2023-02-24T06:24:15.116Z,10.04
2023-02-24T06:26:44.165Z,10.05
2023-02-24T06:29:15.279Z,9.97
2023-02-24T06:31:43.815Z,9.97
2023-02-24T06:34:13.105Z,9.99
2023-02-24T06:36:41.096Z,10.07
2023-02-24T06:39:13.823Z,10.08
2023-02-24T06:41:42.522Z,10.09
2023-02-24T06:44:10.453Z,10.11
2023-02-24T06:46:39.525Z,10.12
2023-02-24T06:49:07.498Z,10.15
2023-02-24T06:51:35.553Z,10.08
2023-02-24T06:54:03.549Z,10.13
2023-02-24T06:56:34.754Z,10.13
2023-02-24T06:59:04.553Z,10.18
2023-02-24T07:01:34.626Z,10.19
2023-02-24T07:04:17.663Z,10.23
2023-02-24T07:06:47.792Z,10.22
2023-02-24T07:09:16.708Z,10.24
2023-02-24T07:11:46.902Z,10.24
2023-02-24T07:14:15.015Z,10.26
2023-02-24T07:16:45.493Z,10.25
2023-02-24T07:19:16.464Z,10.02
2023-02-24T07:21:49.855Z,10.24
2023-02-24T07:24:24.931Z,10.20
2023-02-24T07:26:57.189Z,10.22
2023-02-24T07:29:25.298Z,10.20
2023-02-24T07:31:54.992Z,10.23
2023-02-24T07:34:24.652Z,10.22
2023-02-24T07:36:53.135Z,10.25
2023-02-24T07:39:22.908Z,10.26
2023-02-24T07:41:51.322Z,10.28
2023-02-24T07:44:19.753Z,9.86
2023-02-24T07:46:49.038Z,10.32
2023-02-24T07:49:19.827Z,10.06
2023-02-24T07:51:52.624Z,10.34
2023-02-24T07:54:21.095Z,10.37
2023-02-24T07:56:56.727Z,10.39
2023-02-24T07:59:25.150Z,9.91
2023-02-24T08:01:55.858Z,10.42
2023-02-24T08:04:25.387Z,10.47
2023-02-24T08:07:02.500Z,10.49
2023-02-24T08:10:03.844Z,10.53
2023-02-24T08:12:35.063Z,10.55
2023-02-24T08:15:08.818Z,10.52
2023-02-24T08:17:36.566Z,10.56
2023-02-24T08:20:18.438Z,10.54
2023-02-24T08:22:47.768Z,10.61
2023-02-24T08:25:18.873Z,10.60
2023-02-24T08:28:05.123Z,10.62
2023-02-24T08:30:38.688Z,10.64
2023-02-24T08:33:07.078Z,10.35
2023-02-24T08:35:36.422Z,10.72
2023-02-24T08:38:07.704Z,10.69
2023-02-24T08:40:39.565Z,10.70
2023-02-24T08:43:17.138Z,10.71
2023-02-24T08:45:45.503Z,10.69
2023-02-24T08:48:26.176Z,10.71
2023-02-24T08:50:55.530Z,10.52
2023-02-24T08:53:29.651Z,10.47
2023-02-24T08:55:57.495Z,10.69
2023-02-24T08:58:27.093Z,10.70
2023-02-24T09:00:56.840Z,10.71
2023-02-24T09:03:33.702Z,10.72
2023-02-24T09:06:05.627Z,10.67
2023-02-24T09:08:34.797Z,10.51
2023-02-24T09:11:07.767Z,9.53
2023-02-24T09:13:36.869Z,10.94
2023-02-24T09:16:05.536Z,11.01
2023-02-24T09:18:38.353Z,11.02
2023-02-24T09:21:28.218Z,10.77
2023-02-24T09:23:57.298Z,11.04
2023-02-24T09:26:25.101Z,11.07
2023-02-24T09:28:56.655Z,11.08
2023-02-24T09:31:40.412Z,11.13
2023-02-24T09:34:10.417Z,11.15
2023-02-24T09:36:44.958Z,11.17
2023-02-24T09:39:15.502Z,11.11
2023-02-24T09:41:57.542Z,11.24
2023-02-24T09:44:33.259Z,11.25
2023-02-24T09:47:08.886Z,11.29
2023-02-24T09:49:46.695Z,11.27
2023-02-24T09:52:17.430Z,11.25
2023-02-24T09:55:15.535Z,11.20
2023-02-24T10:00:59.879Z,11.08
2023-02-24T10:03:42.739Z,10.84
2023-02-24T10:06:16.223Z,11.13
2023-02-24T10:08:45.612Z,11.13
2023-02-24T10:11:15.799Z,11.13
2023-02-24T10:13:46.413Z,11.09
2023-02-24T10:16:16.874Z,11.14
2023-02-24T10:18:46.836Z,11.19
2023-02-24T10:21:21.058Z,11.19
2023-02-24T10:23:56.697Z,11.17
2023-02-24T10:26:31.938Z,11.19
2023-02-24T10:29:09.110Z,11.19
2023-02-24T10:31:41.315Z,11.15
2023-02-24T10:34:10.495Z,11.11
2023-02-24T10:36:39.199Z,10.94
2023-02-24T10:39:10.938Z,11.10
2023-02-24T10:41:47.572Z,11.10
2023-02-24T10:44:24.056Z,11.05
2023-02-24T10:47:11.374Z,11.08
2023-02-24T10:49:50.814Z,11.01
2023-02-24T10:52:37.696Z,10.99
2023-02-24T10:55:24.576Z,10.67
2023-02-24T10:58:05.915Z,10.76
2023-02-24T11:01:01.092Z,10.76
2023-02-24T11:03:41.878Z,10.54
2023-02-24T11:06:30.661Z,10.77
2023-02-24T11:09:19.080Z,10.77
2023-02-24T11:12:04.889Z,10.75
2023-02-24T11:14:51.901Z,10.69
2023-02-24T11:17:23.396Z,10.48
2023-02-24T11:19:55.852Z,10.24
2023-02-24T11:22:26.244Z,10.64
2023-02-24T11:24:53.961Z,10.64
2023-02-24T11:27:23.469Z,10.63
2023-02-24T11:30:06.314Z,10.61
2023-02-24T11:32:45.565Z,10.42
2023-02-24T11:35:16.108Z,10.58
2023-02-24T11:37:45.301Z,10.49
2023-02-24T11:40:16.242Z,10.49
2023-02-24T11:42:46.187Z,10.49
2023-02-24T11:45:22.697Z,10.13
2023-02-24T11:47:53.192Z,10.13
2023-02-24T11:50:30.736Z,10.48
2023-02-24T11:52:59.316Z,10.46
2023-02-24T11:55:34.375Z,10.48
2023-02-24T11:58:02.069Z,10.51
2023-02-24T12:00:33.761Z,10.13
2023-02-24T12:03:04.567Z,9.98
2023-02-24T12:05:36.969Z,10.52
2023-02-24T12:08:06.781Z,10.50
2023-02-24T12:10:36.240Z,10.53
2023-02-24T12:13:06.777Z,10.50
2023-02-24T12:15:40.274Z,10.43
2023-02-24T12:18:13.970Z,10.43
2023-02-24T12:20:44.024Z,10.35
2023-02-24T12:23:18.015Z,10.45
2023-02-24T12:25:58.910Z,10.44
2023-02-24T12:28:34.074Z,10.45
2023-02-24T12:31:08.945Z,10.17
2023-02-24T12:38:53.069Z,9.88
2023-02-24T12:41:32.217Z,10.11
2023-02-24T12:44:03.374Z,10.27
2023-02-24T12:46:34.526Z,9.73
2023-02-24T12:49:12.931Z,10.31
2023-02-24T12:51:43.524Z,9.91
2023-02-24T12:54:15.654Z,9.94
2023-02-24T12:56:48.604Z,10.32
2023-02-24T12:59:18.597Z,10.35
2023-02-24T13:01:55.236Z,10.31
2023-02-24T13:04:38.400Z,10.03
2023-02-24T13:07:10.936Z,10.24
2023-02-24T13:09:42.475Z,10.13
2023-02-24T13:12:14.516Z,10.21
2023-02-24T13:14:42.217Z,10.16
2023-02-24T13:17:20.402Z,10.18
2023-02-24T13:19:49.824Z,9.51
2023-02-24T13:22:28.779Z,10.21
2023-02-24T13:25:02.780Z,10.07
2023-02-24T13:27:31.105Z,10.20
2023-02-24T13:30:00.846Z,9.44
2023-02-24T13:32:32.621Z,10.17
2023-02-24T13:35:04.237Z,10.13
2023-02-24T13:37:34.464Z,10.07
2023-02-24T13:40:02.339Z,10.05
2023-02-24T13:42:30.812Z,10.02
2023-02-24T13:45:04.475Z,9.57
2023-02-24T13:48:04.646Z,9.92
2023-02-24T13:50:33.552Z,9.96
2023-02-24T13:53:14.421Z,9.77
2023-02-24T13:55:50.316Z,9.91
2023-02-24T13:58:38.226Z,9.98
2023-02-24T14:01:09.742Z,9.94
2023-02-24T14:03:40.562Z,9.92
2023-02-24T14:06:08.557Z,9.92
2023-02-24T14:08:42.493Z,10.00
2023-02-24T14:11:11.899Z,9.53
2023-02-24T14:13:40.052Z,9.98
2023-02-24T14:16:18.991Z,9.57
2023-02-24T14:18:54.792Z,9.88
2023-02-24T14:21:48.193Z,9.11
2023-02-24T14:24:20.644Z,9.98
2023-02-24T14:26:49.446Z,9.51
2023-02-24T14:29:20.235Z,9.95
2023-02-24T14:31:49.885Z,9.88
2023-02-24T14:34:23.136Z,9.64
2023-02-24T14:36:56.836Z,9.81
2023-02-24T14:39:26.666Z,9.36
2023-02-24T14:42:05.789Z,9.49
2023-02-24T14:44:42.580Z,9.84
2023-02-24T14:47:11.193Z,9.85
2023-02-24T14:49:42.394Z,9.55
2023-02-24T14:52:11.860Z,9.85
2023-02-24T14:54:44.726Z,9.89
2023-02-24T14:57:14.383Z,9.83
2023-02-24T14:59:43.115Z,9.90
2023-02-24T15:02:14.940Z,9.55
2023-02-24T15:04:44.964Z,9.99
2023-02-24T15:07:18.422Z,8.15
2023-02-24T15:09:46.849Z,8.59
2023-02-24T15:12:23.188Z,9.62
2023-02-24T15:14:54.912Z,10.05
2023-02-24T15:17:26.200Z,9.92
2023-02-24T15:19:55.692Z,10.05
2023-02-24T15:22:25.853Z,9.33
2023-02-24T15:24:55.875Z,8.60
2023-02-24T15:27:28.386Z,9.33
2023-02-24T15:30:02.126Z,8.83
2023-02-24T15:32:31.879Z,9.02
2023-02-24T15:35:04.441Z,8.67
2023-02-24T15:37:37.268Z,10.05
2023-02-24T15:40:07.790Z,10.04
2023-02-24T15:42:36.163Z,10.12
2023-02-24T15:45:05.513Z,10.09
2023-02-24T15:47:43.604Z,9.67
2023-02-24T15:50:13.382Z,10.14
2023-02-24T15:52:43.278Z,9.12
2023-02-24T15:55:12.183Z,10.19
2023-02-24T15:57:40.066Z,10.04
2023-02-24T16:00:13.610Z,10.25
2023-02-24T16:02:41.721Z,9.54
2023-02-24T16:05:13.247Z,10.33
2023-02-24T16:07:41.144Z,10.35
2023-02-24T16:10:17.452Z,9.78
2023-02-24T16:12:47.603Z,9.74
2023-02-24T16:15:18.666Z,9.62
2023-02-24T16:17:47.228Z,8.98
2023-02-24T16:20:18.103Z,9.93
2023-02-24T16:22:46.187Z,10.38
2023-02-24T16:25:16.391Z,10.32
2023-02-24T16:27:44.439Z,10.38
2023-02-24T16:30:21.440Z,9.88
2023-02-24T16:32:50.659Z,10.16
2023-02-24T16:35:20.044Z,9.61
2023-02-24T16:37:48.217Z,9.27
2023-02-24T16:40:25.260Z,10.10
2023-02-24T16:42:53.385Z,9.94
2023-02-24T16:45:21.317Z,10.04
2023-02-24T16:47:49.829Z,10.41
2023-02-24T16:50:24.231Z,10.42
2023-02-24T16:52:53.722Z,8.55
2023-02-24T16:55:21.548Z,8.79
2023-02-24T16:57:49.644Z,10.08
2023-02-24T17:00:17.829Z,10.50
2023-02-24T17:02:52.712Z,10.49
2023-02-24T17:05:23.026Z,8.28
2023-02-24T17:07:51.361Z,10.11
2023-02-24T17:10:20.810Z,10.48
2023-02-24T17:12:48.644Z,10.52
2023-02-24T17:15:17.586Z,10.02
2023-02-24T17:17:48.159Z,10.25
2023-02-24T17:20:16.770Z,10.27
2023-02-24T17:22:47.007Z,10.55
2023-02-24T17:25:15.618Z,10.15
2023-02-24T17:27:43.847Z,10.65
2023-02-24T17:30:13.638Z,10.66
2023-02-24T17:32:44.584Z,10.68
2023-02-24T17:35:14.850Z,10.70
2023-02-24T17:37:42.633Z,10.73
2023-02-24T17:40:13.630Z,10.40
2023-02-24T17:42:41.699Z,10.41
2023-02-24T17:45:11.089Z,10.16
2023-02-24T17:47:40.075Z,10.50
2023-02-24T17:50:12.664Z,10.29
2023-02-24T17:52:41.321Z,10.63
2023-02-24T17:55:11.694Z,10.02
2023-02-24T17:57:40.700Z,7.92
2023-02-24T18:00:09.293Z,10.27
2023-02-24T18:02:37.205Z,10.47
2023-02-24T18:05:05.510Z,10.84
2023-02-24T18:07:33.293Z,9.75
2023-02-24T18:10:09.933Z,10.84
2023-02-24T18:12:39.878Z,10.08
2023-02-24T18:15:09.618Z,10.81
2023-02-24T18:17:37.913Z,10.52
2023-02-24T18:20:06.574Z,10.69
2023-02-24T18:22:34.352Z,10.87
2023-02-24T18:25:02.245Z,9.57
2023-02-24T18:27:30.286Z,10.89
2023-02-24T18:29:59.785Z,10.59
2023-02-24T18:32:27.928Z,10.22
2023-02-24T18:34:55.832Z,10.90
2023-02-24T18:37:23.481Z,10.91
2023-02-24T18:39:53.257Z,10.88
2023-02-24T18:42:21.002Z,10.90
2023-02-24T18:44:48.773Z,10.88
2023-02-24T18:47:17.898Z,10.89
2023-02-24T18:49:45.647Z,10.86
2023-02-24T18:52:13.360Z,10.78
2023-02-24T18:54:46.684Z,10.72
2023-02-24T18:57:14.558Z,10.54
2023-02-24T18:59:42.249Z,10.65
2023-02-24T19:02:11.709Z,10.35
2023-02-24T19:04:40.830Z,10.60
2023-02-24T19:07:08.657Z,10.59
2023-02-24T19:09:36.413Z,10.60
2023-02-24T19:12:04.360Z,10.61
2023-02-24T19:14:32.255Z,10.60
2023-02-24T19:17:05.076Z,10.54
2023-02-24T19:19:32.830Z,10.58
2023-02-24T19:22:01.853Z,10.53
2023-02-24T19:24:30.428Z,10.50
2023-02-24T19:26:58.102Z,10.47
2023-02-24T19:29:27.954Z,10.47
2023-02-24T19:31:57.719Z,10.49
2023-02-24T19:34:25.488Z,10.50
2023-02-24T19:36:53.184Z,10.52
2023-02-24T19:39:25.346Z,10.52
2023-02-24T19:41:53.245Z,10.51
2023-02-24T19:44:20.910Z,10.49
2023-02-24T19:46:49.670Z,10.33
2023-02-24T19:49:17.319Z,10.38
2023-02-24T19:51:47.171Z,10.37
2023-02-24T19:54:16.146Z,10.19
2023-02-24T19:56:45.186Z,10.35
2023-02-24T19:59:12.865Z,10.36
2023-02-24T20:01:40.591Z,10.34
2023-02-24T20:04:08.507Z,10.30
2023-02-24T20:06:36.938Z,10.18
2023-02-24T20:09:05.994Z,10.31
2023-02-24T20:11:35.608Z,10.26
2023-02-24T20:14:04.687Z,10.30
2023-02-24T20:16:34.711Z,10.30
2023-02-24T20:19:02.620Z,10.27
2023-02-24T20:21:30.528Z,10.33
2023-02-24T20:23:59.927Z,10.33
2023-02-24T20:26:28.401Z,10.00
2023-02-24T20:28:56.666Z,10.33
2023-02-24T20:31:25.669Z,10.26
2023-02-24T20:33:53.625Z,10.33
2023-02-24T20:36:22.592Z,10.24
2023-02-24T20:38:50.569Z,10.31
2023-02-24T20:41:18.593Z,10.31
2023-02-24T20:43:46.263Z,10.30
2023-02-24T20:46:14.085Z,10.27
2023-02-24T20:48:43.226Z,10.27
2023-02-24T20:51:17.418Z,10.24
2023-02-24T20:53:56.587Z,10.25
2023-02-24T20:56:25.514Z,10.25
2023-02-24T20:58:54.171Z,10.08
2023-02-24T21:01:21.908Z,10.21
2023-02-24T21:03:51.488Z,10.15
2023-02-24T21:06:19.254Z,10.09
2023-02-24T21:08:46.967Z,10.08
2023-02-24T21:11:15.229Z,10.04
2023-02-24T21:13:43.218Z,9.77
2023-02-24T21:16:11.388Z,9.89
2023-02-24T21:18:39.289Z,9.77
2023-02-24T21:21:08.883Z,9.65
2023-02-24T21:23:36.843Z,9.57
2023-02-24T21:26:04.577Z,9.42
2023-02-24T21:28:32.304Z,9.51
2023-02-24T21:31:00.210Z,9.53
2023-02-24T21:33:28.022Z,9.54
2023-02-24T21:35:59.041Z,9.40
2023-02-24T21:38:28.328Z,9.53
2023-02-24T21:40:55.982Z,9.52
2023-02-24T21:43:24.289Z,9.47
2023-02-24T21:45:51.969Z,9.43
2023-02-24T21:48:19.959Z,9.40
2023-02-24T21:50:47.629Z,9.41
2023-02-24T21:53:15.308Z,9.43
2023-02-24T21:55:44.548Z,9.45
2023-02-24T21:58:13.215Z,9.52
2023-02-24T22:00:42.366Z,9.54
2023-02-24T22:03:10.096Z,9.56
2023-02-24T22:05:37.768Z,9.55
2023-02-24T22:08:05.444Z,9.56
2023-02-24T22:10:33.084Z,9.59
2023-02-24T22:13:02.121Z,9.54
2023-02-24T22:15:29.775Z,9.61
2023-02-24T22:17:57.439Z,9.64
2023-02-24T22:20:25.105Z,9.67
2023-02-24T22:22:52.774Z,9.67
2023-02-24T22:25:20.495Z,9.71
2023-02-24T22:27:48.177Z,9.70
2023-02-24T22:30:17.662Z,9.72
2023-02-24T22:32:45.331Z,9.73
2023-02-24T22:35:13.057Z,9.76
2023-02-24T22:37:40.752Z,9.76
2023-02-24T22:40:09.364Z,9.76
2023-02-24T22:42:37.088Z,9.51
2023-02-24T22:45:07.114Z,9.57
2023-02-24T22:47:36.195Z,9.65
2023-02-24T22:50:03.932Z,9.58
2023-02-24T22:52:32.444Z,9.64
2023-02-24T22:55:00.567Z,9.65
2023-02-24T22:57:30.427Z,9.51
2023-02-24T22:59:58.105Z,9.58
2023-02-24T23:02:26.682Z,9.60
2023-02-24T23:04:57.227Z,9.52
2023-02-24T23:07:24.977Z,9.50
2023-02-24T23:09:53.367Z,9.43
2023-02-24T23:12:22.205Z,9.36
2023-02-24T23:14:50.116Z,9.29
2023-02-24T23:17:17.783Z,9.23
2023-02-24T23:19:45.437Z,9.16
2023-02-24T23:22:15.227Z,9.12
2023-02-24T23:24:43.026Z,9.14
2023-02-24T23:27:11.604Z,9.06
2023-02-24T23:29:39.287Z,9.18
2023-02-24T23:32:07.225Z,9.17
2023-02-24T23:34:35.000Z,9.21
2023-02-24T23:37:02.683Z,9.25
2023-02-24T23:39:31.734Z,9.22
2023-02-24T23:41:59.490Z,9.28
2023-02-24T23:44:27.298Z,9.29
2023-02-24T23:46:58.048Z,9.31
2023-02-24T23:49:31.147Z,9.20
2023-02-24T23:52:04.053Z,9.35
2023-02-24T23:54:33.164Z,9.35
2023-02-24T23:57:01.026Z,9.37
2023-02-24T23:59:28.716Z,9.37
